createdAt,value
2018-01-31T01:52:20.812Z,1008.55
2018-01-31T01:52:56.287Z,1008.54
2018-01-31T01:53:56.350Z,1008.50
2018-01-31T01:54:56.412Z,1008.52
2018-01-31T01:55:56.475Z,1008.50
2018-01-31T01:56:56.538Z,1008.42
2018-01-31T01:57:56.602Z,1008.46
2018-01-31T01:58:56.664Z,1008.42
2018-01-31T01:59:56.728Z,1008.38
2018-01-31T02:00:56.792Z,1008.37
2018-01-31T02:01:56.855Z,1008.36
2018-01-31T02:02:56.918Z,1008.34
2018-01-31T02:03:56.980Z,1008.30
2018-01-31T02:04:57.043Z,1008.24
2018-01-31T02:05:57.107Z,1008.24
2018-01-31T02:06:57.173Z,1008.20
2018-01-31T02:07:57.235Z,1008.20
2018-01-31T02:08:57.296Z,1008.19
2018-01-31T02:09:57.360Z,1008.17
2018-01-31T02:10:57.425Z,1008.12
2018-01-31T02:11:57.485Z,1008.08
2018-01-31T02:12:57.549Z,1008.08
2018-01-31T02:13:57.622Z,1008.04
2018-01-31T02:14:57.675Z,1008.01
2018-01-31T02:15:57.737Z,1007.92
2018-01-31T02:16:57.801Z,1007.99
2018-01-31T02:17:57.866Z,1007.94
2018-01-31T02:18:57.928Z,1007.87
2018-01-31T02:19:57.995Z,1007.83
2018-01-31T02:20:58.054Z,1007.81
2018-01-31T02:21:58.118Z,1007.78
2018-01-31T02:22:58.181Z,1007.77
2018-01-31T02:23:58.243Z,1007.77
2018-01-31T02:24:58.306Z,1007.75
2018-01-31T02:25:58.374Z,1007.73
2018-01-31T02:26:58.432Z,1007.70
2018-01-31T02:27:58.496Z,1007.70
2018-01-31T02:28:58.559Z,1007.66
2018-01-31T02:29:58.623Z,1007.65
2018-01-31T02:30:58.686Z,1007.57
2018-01-31T02:31:58.749Z,1007.58
2018-01-31T02:32:58.811Z,1007.60
2018-01-31T02:33:58.881Z,1007.61
2018-01-31T02:34:58.938Z,1007.49
2018-01-31T02:35:59.007Z,1007.52
2018-01-31T02:36:59.064Z,1007.48
2018-01-31T02:37:59.129Z,1007.44
2018-01-31T02:38:59.191Z,1007.41
2018-01-31T02:39:59.254Z,1007.40
2018-01-31T02:40:59.317Z,1007.37
2018-01-31T02:41:59.380Z,1007.35
2018-01-31T02:42:59.443Z,1007.30
2018-01-31T02:43:59.506Z,1007.28
2018-01-31T02:44:59.570Z,1007.27
2018-01-31T02:45:59.633Z,1007.28
2018-01-31T02:46:59.697Z,1007.21
2018-01-31T02:47:59.759Z,1007.21
2018-01-31T02:48:59.822Z,1007.16
2018-01-31T02:49:59.892Z,1007.13
2018-01-31T02:50:59.949Z,1007.14
2018-01-31T02:52:00.014Z,1007.09
2018-01-31T02:53:00.075Z,1007.05
2018-01-31T02:54:00.139Z,1006.97
2018-01-31T02:55:00.202Z,1006.96
2018-01-31T02:56:00.270Z,1006.95
2018-01-31T02:57:00.327Z,1006.91
2018-01-31T02:58:00.390Z,1006.88
2018-01-31T02:59:00.455Z,1006.86
2018-01-31T03:00:00.517Z,1006.83
2018-01-31T03:01:00.580Z,1006.80
2018-01-31T03:02:00.644Z,1006.78
2018-01-31T03:03:00.707Z,1006.74
2018-01-31T03:04:00.770Z,1006.75
2018-01-31T03:05:00.833Z,1006.70
2018-01-31T03:06:00.896Z,1006.64
2018-01-31T03:07:00.960Z,1006.72
2018-01-31T03:08:01.021Z,1006.67
2018-01-31T03:09:01.091Z,1006.63
2018-01-31T03:10:01.149Z,1006.62
2018-01-31T03:11:01.212Z,1006.60
2018-01-31T03:12:01.275Z,1006.63
2018-01-31T03:13:01.338Z,1006.67
2018-01-31T03:14:01.402Z,1006.68
2018-01-31T03:15:01.465Z,1006.70
2018-01-31T03:16:01.530Z,1006.70
2018-01-31T03:17:01.592Z,1006.66
2018-01-31T03:18:01.654Z,1006.59
2018-01-31T03:19:01.718Z,1006.63
2018-01-31T03:20:01.780Z,1006.53
2018-01-31T03:21:01.844Z,1006.55
2018-01-31T03:22:01.908Z,1006.59
2018-01-31T03:23:01.971Z,1006.60
2018-01-31T03:24:02.033Z,1006.57
2018-01-31T03:25:02.095Z,1006.56
2018-01-31T03:26:02.159Z,1006.55
2018-01-31T03:27:02.222Z,1006.56
2018-01-31T03:28:02.286Z,1006.56
2018-01-31T03:29:02.354Z,1006.59
2018-01-31T03:30:02.413Z,1006.48
2018-01-31T03:31:02.477Z,1006.48
2018-01-31T03:32:02.539Z,1006.51
2018-01-31T03:33:02.602Z,1006.49
2018-01-31T03:34:02.665Z,1006.51
2018-01-31T03:35:02.729Z,1006.49
2018-01-31T03:36:02.791Z,1006.52
2018-01-31T03:37:02.855Z,1006.44
2018-01-31T03:38:02.919Z,1006.45
2018-01-31T03:39:02.981Z,1006.42
2018-01-31T03:40:03.043Z,1006.41
2018-01-31T03:41:03.107Z,1006.40
2018-01-31T03:42:03.171Z,1006.40
2018-01-31T03:43:03.233Z,1006.38
2018-01-31T03:44:03.296Z,1006.30
2018-01-31T03:45:03.366Z,1006.26
2018-01-31T03:46:03.424Z,1006.25
2018-01-31T03:47:03.488Z,1006.25
2018-01-31T03:48:03.550Z,1006.27
2018-01-31T03:49:03.613Z,1006.15
2018-01-31T03:50:03.678Z,1006.18
2018-01-31T03:51:03.741Z,1006.16
2018-01-31T03:52:03.804Z,1006.13
2018-01-31T03:53:03.867Z,1006.11
2018-01-31T03:54:03.930Z,1006.10
2018-01-31T03:55:03.994Z,1006.11
2018-01-31T03:56:04.057Z,1006.11
2018-01-31T03:57:04.121Z,1006.12
2018-01-31T03:58:04.183Z,1006.03
2018-01-31T03:59:04.248Z,1006.04
2018-01-31T04:00:04.309Z,1006.04
2018-01-31T04:01:04.374Z,1006.05
2018-01-31T04:02:04.439Z,1005.94
2018-01-31T04:03:04.503Z,1005.89
2018-01-31T04:04:04.565Z,1005.94
2018-01-31T04:05:04.629Z,1005.90
2018-01-31T04:06:04.693Z,1005.89
2018-01-31T04:07:04.760Z,1005.89
2018-01-31T04:08:04.819Z,1005.86
2018-01-31T04:09:04.883Z,1005.86
2018-01-31T04:10:04.947Z,1005.84
2018-01-31T04:11:05.010Z,1005.80
2018-01-31T04:12:05.073Z,1005.83
2018-01-31T04:13:05.138Z,1005.84
2018-01-31T04:14:05.201Z,1005.78
2018-01-31T04:15:05.265Z,1005.81
2018-01-31T04:16:05.328Z,1005.74
2018-01-31T04:17:05.392Z,1005.80
2018-01-31T04:18:05.455Z,1005.80
2018-01-31T04:19:05.520Z,1005.73
2018-01-31T04:20:05.583Z,1005.69
2018-01-31T04:21:05.648Z,1005.71
2018-01-31T04:22:05.712Z,1005.74
2018-01-31T04:23:05.775Z,1005.71
2018-01-31T04:24:05.838Z,1005.68
2018-01-31T04:25:05.903Z,1005.67
2018-01-31T04:26:05.966Z,1005.71
2018-01-31T04:27:06.030Z,1005.68
2018-01-31T04:28:06.094Z,1005.65
2018-01-31T04:29:06.157Z,1005.67
2018-01-31T04:30:06.222Z,1005.66
2018-01-31T04:31:06.286Z,1005.63
2018-01-31T04:32:06.350Z,1005.60
2018-01-31T04:33:06.412Z,1005.53
2018-01-31T04:34:06.477Z,1005.49
2018-01-31T04:35:06.540Z,1005.46
2018-01-31T04:36:06.604Z,1005.47
2018-01-31T04:37:06.668Z,1005.49
2018-01-31T04:38:06.736Z,1005.46
2018-01-31T04:39:06.797Z,1005.48
2018-01-31T04:40:06.861Z,1005.45
2018-01-31T04:41:06.924Z,1005.39
2018-01-31T04:42:06.987Z,1005.38
2018-01-31T04:43:07.054Z,1005.42
2018-01-31T04:44:07.115Z,1005.37
2018-01-31T04:45:07.179Z,1005.39
2018-01-31T04:46:07.243Z,1005.39
2018-01-31T04:47:07.309Z,1005.37
2018-01-31T04:48:07.372Z,1005.33
2018-01-31T04:49:07.435Z,1005.35
2018-01-31T04:50:07.500Z,1005.32
2018-01-31T04:51:07.564Z,1005.37
2018-01-31T04:52:07.627Z,1005.28
2018-01-31T04:53:07.690Z,1005.34
2018-01-31T04:54:07.755Z,1005.33
2018-01-31T04:55:07.819Z,1005.19
2018-01-31T04:56:07.884Z,1005.25
2018-01-31T04:57:07.948Z,1005.27
2018-01-31T04:58:08.012Z,1005.26
2018-01-31T04:59:08.077Z,1005.24
2018-01-31T05:00:08.139Z,1005.26
2018-01-31T05:01:08.204Z,1005.19
2018-01-31T05:02:08.267Z,1005.20
2018-01-31T05:03:08.332Z,1005.20
2018-01-31T05:04:08.397Z,1005.10
2018-01-31T05:05:08.460Z,1005.16
2018-01-31T05:06:08.524Z,1005.09
2018-01-31T05:07:08.588Z,1005.10
2018-01-31T05:08:08.652Z,1005.10
2018-01-31T05:09:08.716Z,1005.07
2018-01-31T05:10:08.780Z,1005.10
2018-01-31T05:11:08.844Z,1005.09
2018-01-31T05:12:08.907Z,1005.08
2018-01-31T05:13:08.972Z,1005.05
2018-01-31T05:14:09.036Z,1005.07
2018-01-31T05:15:09.099Z,1005.04
2018-01-31T05:16:09.164Z,1005.02
2018-01-31T05:17:09.228Z,1005.08
2018-01-31T05:18:09.291Z,1005.05
2018-01-31T05:19:09.355Z,1005.02
2018-01-31T05:20:09.420Z,1005.03
2018-01-31T05:21:09.489Z,1005.06
2018-01-31T05:22:09.548Z,1004.99
2018-01-31T05:23:09.612Z,1005.00
2018-01-31T05:24:09.674Z,1004.99
2018-01-31T05:25:09.746Z,1004.94
2018-01-31T05:26:09.808Z,1004.95
2018-01-31T05:27:09.869Z,1004.86
2018-01-31T05:28:09.932Z,1004.87
2018-01-31T05:29:09.996Z,1004.86
2018-01-31T05:30:10.061Z,1004.89
2018-01-31T05:31:10.124Z,1004.81
2018-01-31T05:32:10.189Z,1004.90
2018-01-31T05:33:10.252Z,1004.79
2018-01-31T05:34:10.316Z,1004.79
2018-01-31T05:35:10.381Z,1004.72
2018-01-31T05:36:10.446Z,1004.68
2018-01-31T05:37:10.510Z,1004.67
2018-01-31T05:38:10.575Z,1004.69
2018-01-31T05:39:10.639Z,1004.68
2018-01-31T05:40:10.704Z,1004.67
2018-01-31T05:41:10.765Z,1004.57
2018-01-31T05:42:10.830Z,1004.55
2018-01-31T05:43:10.895Z,1004.65
2018-01-31T05:44:10.959Z,1004.69
2018-01-31T05:45:11.023Z,1004.60
2018-01-31T05:46:11.088Z,1004.58
2018-01-31T05:47:11.150Z,1004.59
2018-01-31T05:48:11.216Z,1004.58
2018-01-31T05:49:11.280Z,1004.57
2018-01-31T05:50:11.344Z,1004.51
2018-01-31T05:51:11.408Z,1004.60
2018-01-31T05:52:11.473Z,1004.55
2018-01-31T05:53:11.538Z,1004.54
2018-01-31T05:54:11.600Z,1004.54
2018-01-31T05:55:11.710Z,1004.51
2018-01-31T05:56:11.729Z,1004.52
2018-01-31T05:57:11.793Z,1004.46
2018-01-31T05:58:11.859Z,1004.49
2018-01-31T05:59:11.924Z,1004.53
2018-01-31T06:00:11.986Z,1004.52
2018-01-31T06:01:12.050Z,1004.48
2018-01-31T06:02:12.116Z,1004.55
2018-01-31T06:03:12.185Z,1004.55
2018-01-31T06:04:12.243Z,1004.57
2018-01-31T06:05:12.309Z,1004.46
2018-01-31T06:06:12.373Z,1004.50
2018-01-31T06:07:12.437Z,1004.45
2018-01-31T06:08:12.502Z,1004.49
2018-01-31T06:09:12.565Z,1004.48
2018-01-31T06:10:12.631Z,1004.48
2018-01-31T06:11:12.694Z,1004.50
2018-01-31T06:12:12.757Z,1004.44
2018-01-31T06:13:12.821Z,1004.47
2018-01-31T06:14:12.886Z,1004.48
2018-01-31T06:15:12.950Z,1004.51
2018-01-31T06:16:13.013Z,1004.47
2018-01-31T06:17:13.078Z,1004.47
2018-01-31T06:18:13.142Z,1004.43
2018-01-31T06:19:13.207Z,1004.39
2018-01-31T06:20:13.270Z,1004.40
2018-01-31T06:21:13.336Z,1004.30
2018-01-31T06:22:13.399Z,1004.30
2018-01-31T06:23:13.462Z,1004.28
2018-01-31T06:24:13.526Z,1004.26
2018-01-31T06:25:13.590Z,1004.20
2018-01-31T06:26:13.655Z,1004.21
2018-01-31T06:27:13.718Z,1004.28
2018-01-31T06:28:13.783Z,1004.24
2018-01-31T06:29:13.848Z,1004.30
2018-01-31T06:30:13.915Z,1004.23
2018-01-31T06:31:14.045Z,1004.28
2018-01-31T06:32:14.042Z,1004.24
2018-01-31T06:33:14.103Z,1004.25
2018-01-31T06:34:14.168Z,1004.21
2018-01-31T06:35:14.232Z,1004.27
2018-01-31T06:36:14.295Z,1004.26
2018-01-31T06:37:14.359Z,1004.25
2018-01-31T06:38:14.436Z,1004.21
2018-01-31T06:39:14.592Z,1004.28
2018-01-31T06:40:14.551Z,1004.26
2018-01-31T06:41:14.616Z,1004.21
2018-01-31T06:42:14.680Z,1004.27
2018-01-31T06:43:14.746Z,1004.22
2018-01-31T06:44:14.810Z,1004.22
2018-01-31T06:45:14.872Z,1004.18
2018-01-31T06:46:14.938Z,1004.19
2018-01-31T06:47:15.001Z,1004.16
2018-01-31T06:48:15.064Z,1004.21
2018-01-31T06:49:15.178Z,1004.15
2018-01-31T06:50:15.661Z,1004.14
2018-01-31T06:51:15.258Z,1004.16
2018-01-31T06:52:15.319Z,1004.20
2018-01-31T06:53:15.385Z,1004.14
2018-01-31T06:54:15.569Z,1004.17
2018-01-31T06:55:15.613Z,1004.17
2018-01-31T06:56:15.685Z,1004.14
2018-01-31T06:57:15.694Z,1004.14
2018-01-31T06:58:15.730Z,1004.09
2018-01-31T06:59:15.781Z,1004.03
2018-01-31T07:00:15.859Z,1004.08
2018-01-31T07:01:15.952Z,1004.06
2018-01-31T07:02:16.056Z,1004.02
2018-01-31T07:03:16.537Z,1004.00
2018-01-31T07:04:16.613Z,1004.01
2018-01-31T07:05:16.726Z,1003.96
2018-01-31T07:06:16.320Z,1004.01
2018-01-31T07:07:16.458Z,1003.99
2018-01-31T07:08:16.441Z,1003.92
2018-01-31T07:09:16.409Z,1003.97
2018-01-31T07:10:16.482Z,1003.90
2018-01-31T07:11:16.642Z,1003.92
2018-01-31T07:12:16.691Z,1003.89
2018-01-31T07:13:16.757Z,1003.95
2018-01-31T07:14:16.837Z,1003.92
2018-01-31T07:15:16.904Z,1003.90
2018-01-31T07:16:16.968Z,1003.96
2018-01-31T07:17:17.012Z,1003.91
2018-01-31T07:18:17.197Z,1003.93
2018-01-31T07:19:17.216Z,1003.94
2018-01-31T07:20:17.224Z,1004.02
2018-01-31T07:21:17.304Z,1003.91
2018-01-31T07:22:17.334Z,1003.94
2018-01-31T07:23:17.396Z,1003.91
2018-01-31T07:24:17.392Z,1003.94
2018-01-31T07:25:17.433Z,1003.86
2018-01-31T07:26:17.618Z,1003.95
2018-01-31T07:27:17.692Z,1003.89
2018-01-31T07:28:17.626Z,1003.84
2018-01-31T07:29:17.689Z,1003.83
2018-01-31T07:30:17.753Z,1003.76
2018-01-31T07:31:17.832Z,1003.77
2018-01-31T07:32:17.880Z,1003.84
2018-01-31T07:33:17.945Z,1003.78
2018-01-31T07:34:18.008Z,1003.72
2018-01-31T07:35:18.072Z,1003.72
2018-01-31T07:36:18.135Z,1003.71
2018-01-31T07:37:18.198Z,1003.74
2018-01-31T07:38:18.263Z,1003.77
2018-01-31T07:39:18.460Z,1003.71
2018-01-31T07:40:18.391Z,1003.73
2018-01-31T07:41:18.455Z,1003.61
2018-01-31T07:42:18.521Z,1003.63
2018-01-31T07:43:18.583Z,1003.63
2018-01-31T07:44:18.646Z,1003.58
2018-01-31T07:45:18.829Z,1003.55
2018-01-31T07:46:18.855Z,1003.54
2018-01-31T07:47:18.838Z,1003.49
2018-01-31T07:48:18.901Z,1003.48
2018-01-31T07:49:18.969Z,1003.50
2018-01-31T07:50:19.031Z,1003.49
2018-01-31T07:51:19.093Z,1003.39
2018-01-31T07:52:19.155Z,1003.41
2018-01-31T07:53:19.220Z,1003.41
2018-01-31T07:54:19.291Z,1003.33
2018-01-31T07:55:19.381Z,1003.41
2018-01-31T07:56:19.491Z,1003.40
2018-01-31T07:57:19.637Z,1003.43
2018-01-31T07:58:19.537Z,1003.37
2018-01-31T07:59:19.689Z,1003.34
2018-01-31T08:00:19.791Z,1003.35
2018-01-31T08:01:19.841Z,1003.36
2018-01-31T08:02:19.923Z,1003.34
2018-01-31T08:03:20.028Z,1003.26
2018-01-31T08:04:20.019Z,1003.32
2018-01-31T08:05:20.091Z,1003.23
2018-01-31T08:06:20.132Z,1003.33
2018-01-31T08:07:20.116Z,1003.29
2018-01-31T08:08:20.260Z,1003.26
2018-01-31T08:09:20.243Z,1003.26
2018-01-31T08:10:20.301Z,1003.23
2018-01-31T08:11:20.366Z,1003.29
2018-01-31T08:12:20.430Z,1003.28
2018-01-31T08:13:20.500Z,1003.23
2018-01-31T08:14:20.557Z,1003.22
2018-01-31T08:15:20.621Z,1003.14
2018-01-31T08:16:20.683Z,1003.20
2018-01-31T08:17:21.331Z,1003.14
2018-01-31T08:18:20.813Z,1003.13
2018-01-31T08:19:20.875Z,1003.14
2018-01-31T08:20:21.004Z,1003.09
2018-01-31T08:21:21.003Z,1003.07
2018-01-31T08:22:21.065Z,1003.10
2018-01-31T08:23:21.141Z,1003.00
2018-01-31T08:24:21.191Z,1003.09
2018-01-31T08:25:21.263Z,1003.05
2018-01-31T08:26:21.319Z,1003.09
2018-01-31T08:27:21.384Z,1003.00
2018-01-31T08:28:21.446Z,1003.01
2018-01-31T08:29:21.510Z,1003.01
2018-01-31T08:30:21.573Z,1002.94
2018-01-31T08:31:21.637Z,1002.92
2018-01-31T08:32:21.700Z,1002.96
2018-01-31T08:33:21.768Z,1002.89
2018-01-31T08:34:21.829Z,1002.93
2018-01-31T08:35:21.894Z,1002.79
2018-01-31T08:36:21.957Z,1002.80
2018-01-31T08:37:22.021Z,1002.77
2018-01-31T08:38:22.087Z,1002.83
2018-01-31T08:39:22.180Z,1002.71
2018-01-31T08:40:22.215Z,1002.80
2018-01-31T08:41:22.281Z,1002.75
2018-01-31T08:42:22.342Z,1002.71
2018-01-31T08:43:22.407Z,1002.67
2018-01-31T08:44:22.519Z,1002.64
2018-01-31T08:45:22.534Z,1002.60
2018-01-31T08:46:22.599Z,1002.63
2018-01-31T08:47:22.665Z,1002.58
2018-01-31T08:48:22.726Z,1002.53
2018-01-31T08:49:22.864Z,1002.43
2018-01-31T08:50:23.053Z,1002.52
2018-01-31T08:51:23.007Z,1002.48
2018-01-31T08:52:22.984Z,1002.52
2018-01-31T08:53:23.048Z,1002.39
2018-01-31T08:54:23.114Z,1002.40
2018-01-31T08:55:23.177Z,1002.45
2018-01-31T08:56:23.241Z,1002.39
2018-01-31T08:57:23.308Z,1002.38
2018-01-31T08:58:23.373Z,1002.33
2018-01-31T08:59:23.437Z,1002.31
2018-01-31T09:00:23.498Z,1002.25
2018-01-31T09:01:23.747Z,1002.26
2018-01-31T09:02:23.627Z,1002.39
2018-01-31T09:03:23.692Z,1002.39
2018-01-31T09:04:23.848Z,1002.35
2018-01-31T09:05:23.820Z,1002.35
2018-01-31T09:06:23.886Z,1002.33
2018-01-31T09:07:23.998Z,1002.34
2018-01-31T09:08:24.014Z,1002.31
2018-01-31T09:09:24.088Z,1002.30
2018-01-31T09:10:24.147Z,1002.24
2018-01-31T09:11:24.208Z,1002.30
2018-01-31T09:12:24.275Z,1002.14
2018-01-31T09:13:24.337Z,1002.27
2018-01-31T09:14:24.400Z,1002.17
2018-01-31T09:15:24.466Z,1002.21
2018-01-31T09:16:24.551Z,1002.16
2018-01-31T09:17:24.598Z,1002.12
2018-01-31T09:18:24.659Z,1002.10
2018-01-31T09:19:24.724Z,1002.06
2018-01-31T09:20:24.787Z,1002.06
2018-01-31T09:21:24.854Z,1001.99
2018-01-31T09:22:26.681Z,1002.01
2018-01-31T09:23:26.392Z,1001.94
2018-01-31T09:25:26.717Z,1002.08
2018-01-31T09:26:26.013Z,1001.87
2018-01-31T09:27:25.411Z,1001.86
2018-01-31T09:28:25.372Z,1001.95
2018-01-31T09:29:25.872Z,1001.94
2018-01-31T09:30:25.516Z,1001.96
2018-01-31T09:31:25.567Z,1001.79
2018-01-31T09:32:25.618Z,1001.90
2018-01-31T09:34:25.792Z,1001.83
2018-01-31T09:35:25.920Z,1001.76
2018-01-31T09:36:25.934Z,1001.72
2018-01-31T09:37:25.960Z,1001.91
2018-01-31T09:38:26.052Z,1001.71
2018-01-31T09:39:26.192Z,1001.63
2018-01-31T09:41:26.258Z,1001.61
2018-01-31T09:42:26.323Z,1001.47
2018-01-31T09:43:26.447Z,1001.52
2018-01-31T09:44:26.376Z,1001.57
2018-01-31T09:45:26.559Z,1001.57
2018-01-31T09:47:26.655Z,1001.48
2018-01-31T09:48:26.701Z,1001.51
2018-01-31T09:49:26.841Z,1001.63
2018-01-31T09:50:26.870Z,1001.48
2018-01-31T09:51:27.321Z,1001.40
2018-01-31T09:52:27.351Z,1001.55
2018-01-31T09:53:27.531Z,1001.55
2018-01-31T09:54:27.174Z,1001.30
2018-01-31T09:55:27.235Z,1001.49
2018-01-31T09:56:27.294Z,1001.45
2018-01-31T09:57:27.241Z,1001.41
2018-01-31T09:58:27.940Z,1001.52
2018-01-31T09:59:27.490Z,1001.39
2018-01-31T10:00:27.605Z,1001.40
2018-01-31T10:01:27.430Z,1001.32
2018-01-31T10:02:27.757Z,1001.29
2018-01-31T10:03:27.559Z,1001.34
2018-01-31T10:04:27.625Z,1001.42
2018-01-31T10:05:27.686Z,1001.18
2018-01-31T10:06:27.753Z,1001.24
2018-01-31T10:07:27.817Z,1001.16
2018-01-31T10:08:27.881Z,1001.18
2018-01-31T10:09:27.944Z,1001.19
2018-01-31T10:10:28.010Z,1001.31
2018-01-31T10:11:28.075Z,1001.19
2018-01-31T10:12:28.179Z,1001.22
2018-01-31T10:13:28.232Z,1001.21
2018-01-31T10:14:28.267Z,1001.16
2018-01-31T10:15:28.491Z,1001.13
2018-01-31T10:16:28.394Z,1001.18
2018-01-31T10:17:28.459Z,1001.01
2018-01-31T10:18:28.591Z,1001.05
2018-01-31T10:19:28.588Z,1001.00
2018-01-31T10:20:32.561Z,1001.13
2018-01-31T10:21:28.715Z,1001.05
2018-01-31T10:22:28.796Z,1000.67
2018-01-31T10:23:28.846Z,1001.18
2018-01-31T10:24:28.908Z,1001.02
2018-01-31T10:25:28.973Z,1000.87
2018-01-31T10:26:29.088Z,1000.88
2018-01-31T10:27:29.101Z,1000.89
2018-01-31T10:28:29.166Z,1000.87
2018-01-31T10:29:29.268Z,1000.83
2018-01-31T10:30:29.299Z,1000.83
2018-01-31T10:31:29.517Z,1000.75
2018-01-31T10:32:29.470Z,1000.81
2018-01-31T10:33:29.536Z,1000.90
2018-01-31T10:34:29.554Z,1000.80
2018-01-31T10:35:29.726Z,1000.90
2018-01-31T10:36:29.692Z,1000.79
2018-01-31T10:37:29.793Z,1000.83
2018-01-31T10:38:29.808Z,1000.86
2018-01-31T10:39:29.872Z,1000.87
2018-01-31T10:40:29.936Z,1000.73
2018-01-31T10:41:30.071Z,1000.75
2018-01-31T10:42:30.113Z,1000.88
2018-01-31T10:43:30.128Z,1000.64
2018-01-31T10:44:30.192Z,1000.70
2018-01-31T10:45:30.375Z,1000.68
2018-01-31T10:46:30.323Z,1000.53
2018-01-31T10:47:30.472Z,1000.54
2018-01-31T10:48:30.451Z,1000.51
2018-01-31T10:49:30.618Z,1000.59
2018-01-31T10:50:30.663Z,1000.46
2018-01-31T10:51:30.736Z,1000.53
2018-01-31T10:52:30.703Z,1000.45
2018-01-31T10:53:30.768Z,1000.45
2018-01-31T10:57:28.597Z,1000.47
2018-01-31T10:57:29.123Z,1000.43
2018-01-31T10:57:31.072Z,1000.41
2018-01-31T10:58:31.093Z,1000.38
2018-01-31T10:59:31.158Z,1000.35
2018-01-31T11:00:31.217Z,1000.33
2018-01-31T11:01:31.282Z,1000.37
2018-01-31T11:02:31.379Z,1000.29
2018-01-31T11:03:31.501Z,1000.26
2018-01-31T11:04:31.487Z,1000.26
2018-01-31T11:05:31.561Z,1000.18
2018-01-31T11:06:31.611Z,1000.32
2018-01-31T11:07:31.667Z,1000.22
2018-01-31T11:08:31.732Z,1000.13
2018-01-31T11:09:31.795Z,1000.09
2018-01-31T11:10:31.864Z,1000.06
2018-01-31T11:11:31.924Z,1000.08
2018-01-31T11:12:32.116Z,1000.02
2018-01-31T11:13:32.051Z,999.97
2018-01-31T11:14:32.115Z,999.95
2018-01-31T11:15:32.180Z,999.95
2018-01-31T11:16:32.351Z,999.93
2018-01-31T11:17:32.434Z,999.94
2018-01-31T11:18:32.464Z,999.93
2018-01-31T11:19:32.437Z,999.88
2018-01-31T11:20:32.499Z,999.81
2018-01-31T11:21:32.563Z,999.82
2018-01-31T11:22:32.651Z,999.85
2018-01-31T11:23:32.692Z,999.84
2018-01-31T11:24:32.754Z,999.77
2018-01-31T11:25:32.818Z,999.74
2018-01-31T11:26:32.883Z,999.77
2018-01-31T11:27:33.043Z,999.71
2018-01-31T11:28:33.027Z,999.73
2018-01-31T11:29:33.076Z,999.61
2018-01-31T11:30:33.138Z,999.54
2018-01-31T11:31:33.203Z,999.53
2018-01-31T11:32:33.267Z,999.57
2018-01-31T11:33:33.330Z,999.55
2018-01-31T11:34:33.394Z,999.47
2018-01-31T11:35:33.458Z,999.40
2018-01-31T11:36:33.522Z,999.39
2018-01-31T11:37:33.591Z,999.42
2018-01-31T11:38:33.916Z,999.48
2018-01-31T11:39:33.953Z,999.41
2018-01-31T11:40:33.984Z,999.39
2018-01-31T11:41:34.023Z,999.35
2018-01-31T11:42:33.905Z,999.39
2018-01-31T11:43:33.968Z,999.34
2018-01-31T11:44:34.032Z,999.29
2018-01-31T11:45:34.098Z,999.25
2018-01-31T11:46:34.161Z,999.28
2018-01-31T11:47:34.226Z,999.22
2018-01-31T11:48:34.289Z,999.19
2018-01-31T11:49:34.353Z,999.15
2018-01-31T11:50:34.417Z,999.12
2018-01-31T11:51:34.481Z,999.04
2018-01-31T11:52:34.543Z,999.04
2018-01-31T11:53:34.608Z,998.98
2018-01-31T11:54:34.671Z,998.92
2018-01-31T11:55:34.735Z,998.92
2018-01-31T11:56:34.800Z,998.87
2018-01-31T11:57:34.862Z,998.82
2018-01-31T11:58:34.928Z,998.75
2018-01-31T11:59:34.992Z,998.93
2018-01-31T12:00:35.114Z,998.89
2018-01-31T12:01:35.243Z,998.79
2018-01-31T12:02:35.287Z,998.73
2018-01-31T12:03:35.247Z,998.74
2018-01-31T12:04:35.310Z,998.73
2018-01-31T12:05:35.374Z,998.67
2018-01-31T12:06:35.439Z,998.53
2018-01-31T12:07:35.503Z,998.63
2018-01-31T12:08:35.566Z,998.53
2018-01-31T12:09:35.631Z,998.57
2018-01-31T12:10:35.694Z,998.49
2018-01-31T12:11:35.758Z,998.49
2018-01-31T12:12:35.821Z,998.43
2018-01-31T12:13:35.885Z,998.34
2018-01-31T12:14:35.955Z,998.42
2018-01-31T12:15:36.012Z,998.34
2018-01-31T12:16:36.076Z,998.42
2018-01-31T12:17:36.140Z,998.32
2018-01-31T12:18:36.204Z,998.33
2018-01-31T12:19:36.268Z,998.26
2018-01-31T12:20:36.331Z,998.28
2018-01-31T12:21:36.394Z,998.25
2018-01-31T12:22:36.459Z,998.24
2018-01-31T12:23:36.528Z,998.08
2018-01-31T12:24:36.586Z,998.13
2018-01-31T12:25:36.652Z,998.13
2018-01-31T12:26:36.714Z,998.20
2018-01-31T12:27:36.777Z,998.18
2018-01-31T12:28:36.841Z,998.13
2018-01-31T12:29:36.904Z,998.05
2018-01-31T12:30:36.974Z,998.05
2018-01-31T12:31:37.048Z,998.00
2018-01-31T12:32:37.095Z,997.97
2018-01-31T12:33:37.160Z,997.99
2018-01-31T12:34:37.339Z,997.99
2018-01-31T12:35:37.286Z,997.94
2018-01-31T12:36:37.354Z,997.91
2018-01-31T12:37:37.414Z,997.82
2018-01-31T12:38:37.481Z,997.85
2018-01-31T12:39:37.542Z,997.82
2018-01-31T12:40:37.609Z,997.78
2018-01-31T12:41:37.670Z,997.68
2018-01-31T12:42:37.759Z,997.64
2018-01-31T12:43:37.796Z,997.58
2018-01-31T12:44:37.860Z,997.56
2018-01-31T12:45:37.924Z,997.53
2018-01-31T12:46:37.988Z,997.61
2018-01-31T12:47:38.051Z,997.48
2018-01-31T12:48:38.124Z,997.49
2018-01-31T12:49:38.177Z,997.45
2018-01-31T12:50:38.242Z,997.45
2018-01-31T12:51:38.314Z,997.49
2018-01-31T12:52:38.381Z,997.34
2018-01-31T12:53:38.440Z,997.45
2018-01-31T12:54:38.497Z,997.52
2018-01-31T12:55:38.560Z,997.40
2018-01-31T12:56:38.624Z,997.36
2018-01-31T12:57:38.690Z,997.42
2018-01-31T12:58:38.768Z,997.38
2018-01-31T12:59:38.817Z,997.36
2018-01-31T13:00:38.892Z,997.28
2018-01-31T13:01:38.942Z,997.15
2018-01-31T13:02:39.006Z,997.15
2018-01-31T13:03:39.068Z,997.07
2018-01-31T13:04:39.131Z,997.06
2018-01-31T13:05:39.198Z,997.04
2018-01-31T13:06:39.357Z,997.02
2018-01-31T13:07:39.421Z,996.96
2018-01-31T13:08:39.413Z,996.97
2018-01-31T13:09:39.563Z,996.89
2018-01-31T13:10:39.632Z,996.84
2018-01-31T13:11:39.602Z,996.82
2018-01-31T13:12:39.642Z,996.87
2018-01-31T13:13:39.706Z,996.82
2018-01-31T13:14:39.865Z,996.79
2018-01-31T13:15:39.834Z,996.73
2018-01-31T13:16:39.896Z,996.72
2018-01-31T13:17:39.961Z,996.69
2018-01-31T13:18:40.033Z,996.71
2018-01-31T13:19:40.089Z,996.69
2018-01-31T13:20:40.152Z,996.67
2018-01-31T13:21:40.216Z,996.64
2018-01-31T13:22:40.283Z,996.65
2018-01-31T13:23:40.392Z,996.70
2018-01-31T13:24:40.406Z,996.54
2018-01-31T13:25:40.472Z,996.55
2018-01-31T13:26:40.535Z,996.58
2018-01-31T13:27:40.598Z,996.50
2018-01-31T13:28:40.660Z,996.49
2018-01-31T13:29:40.725Z,996.43
2018-01-31T13:30:40.791Z,996.37
2018-01-31T13:31:40.853Z,996.47
2018-01-31T13:32:40.916Z,996.39
2018-01-31T13:33:40.981Z,996.38
2018-01-31T13:34:41.046Z,996.40
2018-01-31T13:35:41.107Z,996.38
2018-01-31T13:36:41.170Z,996.44
2018-01-31T13:37:41.234Z,996.44
2018-01-31T13:38:41.297Z,996.34
2018-01-31T13:39:41.361Z,996.44
2018-01-31T13:40:41.425Z,996.36
2018-01-31T13:41:41.488Z,996.40
2018-01-31T13:42:41.552Z,996.34
2018-01-31T13:43:41.615Z,996.32
2018-01-31T13:44:41.679Z,996.25
2018-01-31T13:45:41.746Z,996.20
2018-01-31T13:46:41.807Z,996.24
2018-01-31T13:47:41.870Z,996.20
2018-01-31T13:48:41.934Z,996.20
2018-01-31T13:49:41.997Z,996.07
2018-01-31T13:50:42.061Z,995.88
2018-01-31T13:51:42.124Z,996.00
2018-01-31T13:52:42.188Z,995.99
2018-01-31T13:53:42.253Z,995.96
2018-01-31T13:54:42.315Z,996.05
2018-01-31T13:55:42.378Z,995.92
2018-01-31T13:56:42.441Z,995.96
2018-01-31T13:57:42.507Z,995.90
2018-01-31T13:58:42.569Z,995.91
2018-01-31T13:59:42.631Z,995.88
2018-01-31T14:00:42.693Z,995.93
2018-01-31T14:01:42.759Z,995.89
2018-01-31T14:02:42.823Z,995.86
2018-01-31T14:03:42.886Z,995.81
2018-01-31T14:04:42.949Z,995.77
2018-01-31T14:05:43.012Z,995.67
2018-01-31T14:06:43.076Z,995.68
2018-01-31T14:07:43.138Z,995.59
2018-01-31T14:08:43.201Z,995.58